Time;durP1;ratioP1;P1;durP2;ratioP2;P2;SDS_P1;SDS_P2;PMS_P1;PMS_P2;Temp;Humidity;BMP_temperature;BMP_pressure;BME280_temperature;BME280_humidity;BME280_pressure;Samples;Min_cycle;Max_cycle;Signal;HPM_P1;HPM_P2
2023/10/09 00:00:58;;;;;;;11.38;6.97;;;;;;;;;;480858;28;1133;-69
2023/10/09 00:01:17;;;;;;;9.13;6.50;;;;;;;;;;484281;28;1147;-68
2023/10/09 00:01:33;;;;;;;10.05;6.47;;;;;;;;;;482721;28;1406;-69
2023/10/09 00:01:48;;;;;;;10.52;6.70;;;;;;;;;;479738;28;1275;-69
2023/10/09 00:02:06;;;;;;;9.30;6.43;;;;;;;;;;481005;28;1311;-68
2023/10/09 00:02:22;;;;;;;8.55;6.03;;;;;;;;;;482090;28;1250;-69
2023/10/09 00:02:39;;;;;;;9.80;6.50;;;;;;;;;;480744;28;1102;-69
2023/10/09 00:02:55;;;;;;;9.32;6.05;;;;;;;;;;478241;28;1172;-69
2023/10/09 00:03:12;;;;;;;8.77;5.80;;;;;;;;;;481411;28;994;-69
2023/10/09 00:03:27;;;;;;;10.23;6.20;;;;;;;;;;478099;28;1443;-69
2023/10/09 00:03:44;;;;;;;11.65;6.80;;;;;;;;;;477967;28;1100;-68
2023/10/09 00:04:02;;;;;;;11.10;6.70;;;;;;;;;;478265;28;1236;-69
2023/10/09 00:04:17;;;;;;;10.45;6.28;;;;;;;;;;480775;28;1285;-69
2023/10/09 00:04:36;;;;;;;11.48;6.00;;;;;;;;;;477332;28;1336;-69
2023/10/09 00:04:51;;;;;;;11.70;6.00;;;;;;;;;;478307;28;998;-69
2023/10/09 00:05:11;;;;;;;12.52;6.03;;;;;;;;;;479326;28;1188;-68
2023/10/09 00:05:55;;;;;;;12.05;6.10;;;;;;;;;;478304;28;1310;-69
2023/10/09 00:06:13;;;;;;;9.93;5.57;;;;;;;;;;481796;28;966;-68
2023/10/09 00:06:37;;;;;;;9.23;5.70;;;;;;;;;;476748;28;1240;-69
2023/10/09 00:06:54;;;;;;;8.35;5.07;;;;;;;;;;476879;28;1144;-69
2023/10/09 00:07:10;;;;;;;7.63;4.80;;;;;;;;;;478170;28;1297;-68
2023/10/09 00:07:26;;;;;;;7.63;5.38;;;;;;;;;;479514;28;959;-69
2023/10/09 00:07:42;;;;;;;10.27;5.80;;;;;;;;;;478483;28;1297;-69
2023/10/09 00:07:58;;;;;;;11.30;5.70;;;;;;;;;;478528;28;1498;-69
2023/10/09 00:08:21;;;;;;;9.43;5.63;;;;;;;;;;481021;28;1087;-69
2023/10/09 00:08:39;;;;;;;7.95;5.43;;;;;;;;;;481358;28;1241;-69
2023/10/09 00:08:55;;;;;;;9.13;5.60;;;;;;;;;;479342;28;1113;-69
2023/10/09 00:09:47;;;;;;;9.18;5.60;;;;;;;;;;480559;28;924;-69
2023/10/09 00:10:12;;;;;;;9.55;5.50;;;;;;;;;;479473;28;1338;-69
2023/10/09 00:10:35;;;;;;;13.73;5.85;;;;;;;;;;480992;28;1131;-69
2023/10/09 00:10:54;;;;;;;12.77;5.80;;;;;;;;;;481092;28;1093;-69
2023/10/09 00:11:17;;;;;;;9.68;5.60;;;;;;;;;;483515;28;1078;-68
2023/10/09 00:11:38;;;;;;;6.50;4.95;;;;;;;;;;479547;28;1120;-69
2023/10/09 00:11:57;;;;;;;7.05;4.85;;;;;;;;;;479735;28;1341;-69
2023/10/09 00:12:16;;;;;;;7.28;5.32;;;;;;;;;;483230;28;1106;-69
2023/10/09 00:12:32;;;;;;;7.78;5.70;;;;;;;;;;480386;28;1511;-69
2023/10/09 00:12:49;;;;;;;9.35;6.15;;;;;;;;;;480313;28;1024;-69
2023/10/09 00:13:04;;;;;;;10.20;6.13;;;;;;;;;;478625;28;1260;-69
2023/10/09 00:13:28;;;;;;;10.90;5.83;;;;;;;;;;480360;28;996;-69
2023/10/09 00:13:57;;;;;;;12.32;6.57;;;;;;;;;;479333;28;1403;-69
2023/10/09 00:14:12;;;;;;;8.68;6.25;;;;;;;;;;482449;28;1271;-69
2023/10/09 00:14:33;;;;;;;9.57;6.40;;;;;;;;;;479078;28;1253;-69
2023/10/09 00:14:50;;;;;;;10.98;6.70;;;;;;;;;;478717;28;1095;-69
2023/10/09 00:15:11;;;;;;;10.90;6.60;;;;;;;;;;479325;28;1443;-68
2023/10/09 00:15:28;;;;;;;11.80;6.68;;;;;;;;;;477738;28;915;-69
2023/10/09 00:15:43;;;;;;;11.02;6.30;;;;;;;;;;478699;28;2022;-69
2023/10/09 00:16:13;;;;;;;9.55;6.13;;;;;;;;;;479076;28;1226;-69
2023/10/09 00:16:36;;;;;;;9.85;6.65;;;;;;;;;;480267;28;1335;-69
2023/10/09 00:17:38;;;;;;;9.90;6.57;;;;;;;;;;480232;28;1102;-69
2023/10/09 00:17:56;;;;;;;9.85;6.40;;;;;;;;;;479741;28;1117;-69
2023/10/09 00:18:12;;;;;;;10.15;6.40;;;;;;;;;;484371;28;1271;-68
2023/10/09 00:18:33;;;;;;;9.13;6.28;;;;;;;;;;480879;28;1097;-69
2023/10/09 00:18:50;;;;;;;9.48;6.82;;;;;;;;;;480299;28;1423;-69
2023/10/09 00:19:32;;;;;;;11.25;6.68;;;;;;;;;;480855;28;964;-69
2023/10/09 00:19:49;;;;;;;12.00;6.50;;;;;;;;;;480528;28;961;-69
2023/10/09 00:20:17;;;;;;;8.82;5.82;;;;;;;;;;481634;28;1137;-68
2023/10/09 00:20:39;;;;;;;8.45;5.70;;;;;;;;;;482422;28;1131;-69
2023/10/09 00:21:11;;;;;;;8.65;5.43;;;;;;;;;;481224;28;985;-69
2023/10/09 00:21:34;;;;;;;7.35;5.13;;;;;;;;;;482738;28;1036;-69
2023/10/09 00:21:50;;;;;;;7.53;5.20;;;;;;;;;;482554;28;1248;-69
2023/10/09 00:22:10;;;;;;;8.82;5.57;;;;;;;;;;479511;28;1450;-68
2023/10/09 00:22:26;;;;;;;9.68;6.10;;;;;;;;;;480979;28;902;-69
2023/10/09 00:22:43;;;;;;;8.95;6.05;;;;;;;;;;480025;28;1228;-69
2023/10/09 00:22:58;;;;;;;10.43;6.40;;;;;;;;;;478788;28;1451;-69
2023/10/09 00:23:15;;;;;;;10.13;6.63;;;;;;;;;;480257;28;1284;-69
2023/10/09 00:23:33;;;;;;;10.10;6.72;;;;;;;;;;479642;28;1107;-69
2023/10/09 00:23:55;;;;;;;10.60;6.65;;;;;;;;;;480003;28;1133;-69
2023/10/09 00:24:14;;;;;;;11.10;6.18;;;;;;;;;;483227;28;1209;-68
2023/10/09 00:24:29;;;;;;;11.45;6.10;;;;;;;;;;479581;28;1186;-69
2023/10/09 00:24:45;;;;;;;10.13;6.03;;;;;;;;;;480215;28;1204;-69
2023/10/09 00:25:22;;;;;;;9.60;6.00;;;;;;;;;;481717;28;1138;-69
2023/10/09 00:25:44;;;;;;;12.00;6.40;;;;;;;;;;478815;28;1109;-69
2023/10/09 00:26:12;;;;;;;8.65;5.80;;;;;;;;;;480758;28;1134;-69
2023/10/09 00:26:43;;;;;;;9.50;5.88;;;;;;;;;;480484;28;1247;-69
2023/10/09 00:27:19;;;;;;;9.18;6.00;;;;;;;;;;481081;28;1224;-71
2023/10/09 00:27:36;;;;;;;10.93;6.43;;;;;;;;;;481041;28;1401;-71
2023/10/09 00:27:52;;;;;;;8.70;6.28;;;;;;;;;;479922;28;1284;-71
2023/10/09 00:28:18;;;;;;;8.57;5.85;;;;;;;;;;481293;28;1278;-70
2023/10/09 00:28:41;;;;;;;10.05;6.20;;;;;;;;;;483643;28;1098;-70
2023/10/09 00:28:56;;;;;;;8.63;6.18;;;;;;;;;;481867;28;981;-71
2023/10/09 00:29:21;;;;;;;8.30;5.93;;;;;;;;;;484165;28;1016;-71
2023/10/09 00:29:44;;;;;;;9.93;6.20;;;;;;;;;;481061;28;1164;-71
2023/10/09 00:29:59;;;;;;;9.90;6.15;;;;;;;;;;479180;28;1471;-71
2023/10/09 00:30:21;;;;;;;10.07;6.07;;;;;;;;;;481070;28;1603;-71
2023/10/09 00:30:41;;;;;;;10.00;6.25;;;;;;;;;;480260;28;974;-71
2023/10/09 00:30:56;;;;;;;10.77;6.32;;;;;;;;;;480228;28;1445;-70
2023/10/09 00:31:15;;;;;;;9.57;6.17;;;;;;;;;;481455;28;1398;-70
2023/10/09 00:31:33;;;;;;;10.35;6.45;;;;;;;;;;479039;28;1288;-71
2023/10/09 00:32:03;;;;;;;10.10;6.13;;;;;;;;;;479269;28;1243;-71
2023/10/09 00:32:26;;;;;;;10.88;5.95;;;;;;;;;;483042;28;1069;-71
2023/10/09 00:33:16;;;;;;;10.23;5.90;;;;;;;;;;484126;28;887;-71
2023/10/09 00:33:32;;;;;;;10.37;6.10;;;;;;;;;;481366;28;1385;-71
2023/10/09 00:33:48;;;;;;;10.70;6.20;;;;;;;;;;480534;28;1257;-71
2023/10/09 00:34:07;;;;;;;10.80;6.30;;;;;;;;;;478931;28;1264;-70
2023/10/09 00:34:26;;;;;;;11.05;6.50;;;;;;;;;;478812;28;1487;-70
2023/10/09 00:34:42;;;;;;;9.57;5.90;;;;;;;;;;480060;28;1292;-71
2023/10/09 00:34:59;;;;;;;9.45;5.70;;;;;;;;;;479317;28;978;-70
2023/10/09 00:35:54;;;;;;;11.43;6.53;;;;;;;;;;478809;28;2420;-71
2023/10/09 00:36:10;;;;;;;11.38;6.72;;;;;;;;;;481760;28;1244;-71
2023/10/09 00:36:28;;;;;;;10.15;6.22;;;;;;;;;;479621;28;1220;-71
2023/10/09 00:36:53;;;;;;;8.55;5.72;;;;;;;;;;477888;28;1336;-71
2023/10/09 00:37:22;;;;;;;8.90;5.97;;;;;;;;;;479363;28;935;-71
2023/10/09 00:37:39;;;;;;;10.05;6.10;;;;;;;;;;476402;28;1075;-71
2023/10/09 00:38:00;;;;;;;10.30;6.05;;;;;;;;;;474091;29;1137;-71
2023/10/09 00:38:45;;;;;;;10.68;6.00;;;;;;;;;;478374;28;997;-71
2023/10/09 00:39:11;;;;;;;9.27;5.68;;;;;;;;;;478952;28;1469;-71
2023/10/09 00:39:58;;;;;;;9.35;5.70;;;;;;;;;;477464;28;1090;-71
2023/10/09 00:40:22;;;;;;;11.30;5.88;;;;;;;;;;481614;28;1117;-71
2023/10/09 00:40:45;;;;;;;10.48;5.57;;;;;;;;;;480559;28;1198;-71
2023/10/09 00:41:10;;;;;;;8.40;5.28;;;;;;;;;;480519;28;1330;-71
2023/10/09 00:41:29;;;;;;;8.23;5.32;;;;;;;;;;481408;28;1094;-70
2023/10/09 00:41:44;;;;;;;7.57;5.22;;;;;;;;;;480082;28;1356;-71
2023/10/09 00:42:00;;;;;;;9.35;5.65;;;;;;;;;;480397;28;1084;-71
2023/10/09 00:42:27;;;;;;;9.68;5.63;;;;;;;;;;482913;28;1411;-71
2023/10/09 00:42:42;;;;;;;7.03;5.25;;;;;;;;;;482126;28;1378;-71
2023/10/09 00:43:02;;;;;;;7.68;5.07;;;;;;;;;;480146;28;1228;-70
2023/10/09 00:43:19;;;;;;;9.37;5.40;;;;;;;;;;481734;28;1327;-71
2023/10/09 00:43:36;;;;;;;8.43;5.28;;;;;;;;;;481111;28;1005;-71
2023/10/09 00:43:52;;;;;;;8.85;5.30;;;;;;;;;;480387;28;1108;-71
2023/10/09 00:44:08;;;;;;;9.38;5.70;;;;;;;;;;483207;28;1267;-71
2023/10/09 00:44:23;;;;;;;8.20;5.33;;;;;;;;;;482474;28;1250;-71
2023/10/09 00:44:39;;;;;;;8.15;5.18;;;;;;;;;;480515;28;934;-71
2023/10/09 00:45:03;;;;;;;8.25;5.38;;;;;;;;;;480637;28;1043;-71
2023/10/09 00:45:27;;;;;;;8.73;5.60;;;;;;;;;;482253;28;1552;-71
2023/10/09 00:45:44;;;;;;;10.13;5.60;;;;;;;;;;480827;28;1072;-71
2023/10/09 00:46:08;;;;;;;9.10;5.68;;;;;;;;;;479952;28;949;-71
2023/10/09 00:46:23;;;;;;;8.75;5.30;;;;;;;;;;479684;28;906;-71
2023/10/09 00:46:43;;;;;;;8.50;5.30;;;;;;;;;;479758;28;1240;-71
2023/10/09 00:47:08;;;;;;;9.18;5.60;;;;;;;;;;478029;28;1275;-71
2023/10/09 00:47:33;;;;;;;8.80;5.30;;;;;;;;;;478865;28;1010;-71
2023/10/09 00:47:49;;;;;;;8.43;5.20;;;;;;;;;;479055;28;1143;-71
2023/10/09 00:48:06;;;;;;;7.63;5.20;;;;;;;;;;478620;28;1304;-70
2023/10/09 00:48:30;;;;;;;7.53;5.07;;;;;;;;;;479442;28;932;-71
2023/10/09 00:48:55;;;;;;;6.47;4.55;;;;;;;;;;478292;28;1371;-71
2023/10/09 00:49:11;;;;;;;6.25;4.45;;;;;;;;;;477295;28;1167;-70
2023/10/09 00:49:27;;;;;;;6.90;4.80;;;;;;;;;;479705;28;996;-71
2023/10/09 00:49:43;;;;;;;7.20;4.97;;;;;;;;;;480983;28;1064;-71
2023/10/09 00:50:46;;;;;;;9.38;5.15;;;;;;;;;;481014;28;963;-71
2023/10/09 00:50:46;;;;;;;8.30;5.20;;;;;;;;;;476684;29;1068;-70
2023/10/09 00:51:15;;;;;;;8.98;5.30;;;;;;;;;;481149;28;1130;-71
2023/10/09 00:51:35;;;;;;;8.57;5.30;;;;;;;;;;480317;28;942;-71
2023/10/09 00:51:56;;;;;;;9.27;5.22;;;;;;;;;;479822;28;1279;-71
2023/10/09 00:52:18;;;;;;;9.52;5.15;;;;;;;;;;482145;28;958;-70
2023/10/09 00:52:43;;;;;;;10.15;5.43;;;;;;;;;;479679;28;1218;-71
2023/10/09 00:53:03;;;;;;;8.27;5.50;;;;;;;;;;480667;28;1462;-71
2023/10/09 00:53:30;;;;;;;8.70;5.32;;;;;;;;;;482177;28;934;-71
2023/10/09 00:53:51;;;;;;;9.95;5.47;;;;;;;;;;481354;28;1077;-71
2023/10/09 00:54:13;;;;;;;9.10;5.05;;;;;;;;;;483204;28;1077;-70
2023/10/09 00:54:36;;;;;;;7.32;4.65;;;;;;;;;;479254;28;1659;-71
2023/10/09 00:55:00;;;;;;;7.32;5.00;;;;;;;;;;479355;28;1239;-71
2023/10/09 00:56:03;;;;;;;8.15;5.07;;;;;;;;;;477935;28;1989;-71
2023/10/09 00:56:05;;;;;;;7.32;5.05;;;;;;;;;;482511;28;1145;-71
2023/10/09 00:56:37;;;;;;;8.10;5.22;;;;;;;;;;481114;28;1080;-71
2023/10/09 00:56:58;;;;;;;9.07;5.10;;;;;;;;;;482238;28;1059;-71
2023/10/09 00:57:15;;;;;;;9.60;5.13;;;;;;;;;;483842;28;990;-71
2023/10/09 00:57:37;;;;;;;8.48;5.03;;;;;;;;;;481886;28;1010;-71
2023/10/09 00:57:59;;;;;;;7.72;5.07;;;;;;;;;;483699;28;1094;-71
2023/10/09 00:58:23;;;;;;;9.57;5.38;;;;;;;;;;484977;28;966;-71
2023/10/09 00:58:40;;;;;;;7.63;4.75;;;;;;;;;;480842;28;1077;-71
2023/10/09 00:59:08;;;;;;;7.68;4.85;;;;;;;;;;481068;28;1082;-71
2023/10/09 00:59:25;;;;;;;9.02;4.80;;;;;;;;;;481661;28;1284;-71
2023/10/09 00:59:42;;;;;;;8.90;5.00;;;;;;;;;;480477;28;1379;-71
2023/10/09 00:59:59;;;;;;;8.75;5.15;;;;;;;;;;479326;28;1102;-71
2023/10/09 01:00:45;;;;;;;9.45;5.03;;;;;;;;;;482055;28;1182;-71
2023/10/09 01:01:04;;;;;;;7.95;4.85;;;;;;;;;;481168;28;1181;-71
2023/10/09 01:01:23;;;;;;;9.80;5.20;;;;;;;;;;481290;28;1219;-71
2023/10/09 01:01:56;;;;;;;8.93;4.88;;;;;;;;;;479882;28;934;-71
2023/10/09 01:02:11;;;;;;;8.25;4.75;;;;;;;;;;482591;28;1033;-71
2023/10/09 01:02:35;;;;;;;7.93;4.53;;;;;;;;;;480072;28;1332;-71
2023/10/09 01:03:01;;;;;;;7.03;4.40;;;;;;;;;;479783;28;1034;-71
2023/10/09 01:03:34;;;;;;;6.70;4.32;;;;;;;;;;480139;28;1113;-71
2023/10/09 01:03:51;;;;;;;7.20;4.40;;;;;;;;;;478545;28;1356;-71
2023/10/09 01:04:17;;;;;;;8.45;4.70;;;;;;;;;;478106;28;1440;-70
2023/10/09 01:04:40;;;;;;;7.32;4.63;;;;;;;;;;479678;28;1156;-71
2023/10/09 01:04:55;;;;;;;7.93;4.63;;;;;;;;;;481983;28;1093;-71
2023/10/09 01:05:20;;;;;;;8.20;4.80;;;;;;;;;;482547;28;1304;-70
2023/10/09 01:05:36;;;;;;;7.55;4.85;;;;;;;;;;484598;28;1495;-71
2023/10/09 01:05:58;;;;;;;7.68;5.00;;;;;;;;;;485816;28;887;-70
2023/10/09 01:06:33;;;;;;;10.55;4.75;;;;;;;;;;487001;28;1256;-70
2023/10/09 01:07:04;;;;;;;9.40;5.07;;;;;;;;;;485712;28;1352;-70
2023/10/09 01:07:25;;;;;;;8.23;5.07;;;;;;;;;;486573;28;1266;-70
2023/10/09 01:07:41;;;;;;;8.23;5.00;;;;;;;;;;487410;28;1099;-70
2023/10/09 01:07:59;;;;;;;8.38;5.10;;;;;;;;;;487177;28;1046;-70
2023/10/09 01:08:24;;;;;;;9.07;4.93;;;;;;;;;;482472;28;1240;-70
2023/10/09 01:09:09;;;;;;;8.32;4.88;;;;;;;;;;482471;28;1001;-70
2023/10/09 01:09:24;;;;;;;7.72;4.80;;;;;;;;;;482731;28;903;-70
2023/10/09 01:09:44;;;;;;;8.82;4.80;;;;;;;;;;482501;28;1357;-70
2023/10/09 01:10:10;;;;;;;8.40;4.55;;;;;;;;;;483515;28;1596;-71
2023/10/09 01:10:33;;;;;;;7.25;4.53;;;;;;;;;;483643;28;935;-70
2023/10/09 01:10:56;;;;;;;7.60;4.95;;;;;;;;;;483272;28;1001;-71
2023/10/09 01:11:19;;;;;;;6.95;4.70;;;;;;;;;;483288;28;1347;-70
2023/10/09 01:11:38;;;;;;;8.52;4.95;;;;;;;;;;484508;28;1079;-70
2023/10/09 01:12:29;;;;;;;9.45;5.00;;;;;;;;;;481562;28;1150;-71
2023/10/09 01:12:43;;;;;;;7.18;4.75;;;;;;;;;;486575;28;1020;-70
2023/10/09 01:12:44;;;;;;;7.30;4.90;;;;;;;;;;480894;28;1479;-71
2023/10/09 01:13:00;;;;;;;8.33;5.00;;;;;;;;;;482422;28;1727;-70
2023/10/09 01:13:18;;;;;;;9.70;5.10;;;;;;;;;;483170;28;865;-70
2023/10/09 01:13:52;;;;;;;8.77;4.97;;;;;;;;;;483167;28;1290;-71
2023/10/09 01:14:23;;;;;;;9.93;5.20;;;;;;;;;;481257;28;899;-70
2023/10/09 01:14:41;;;;;;;9.10;5.17;;;;;;;;;;478971;28;1060;-70
2023/10/09 01:14:59;;;;;;;8.30;5.45;;;;;;;;;;480571;28;921;-70
2023/10/09 01:15:35;;;;;;;7.57;5.13;;;;;;;;;;479704;28;975;-70
2023/10/09 01:15:51;;;;;;;10.60;5.63;;;;;;;;;;480945;28;2590;-71
2023/10/09 01:16:15;;;;;;;9.35;5.50;;;;;;;;;;484144;28;979;-70
2023/10/09 01:16:31;;;;;;;7.35;4.90;;;;;;;;;;485405;28;1035;-71
2023/10/09 01:16:47;;;;;;;7.85;5.30;;;;;;;;;;485000;28;1192;-71
2023/10/09 01:17:11;;;;;;;6.80;4.95;;;;;;;;;;485087;28;954;-70
2023/10/09 01:17:35;;;;;;;9.43;5.13;;;;;;;;;;484252;28;1032;-71
2023/10/09 01:17:50;;;;;;;7.82;5.30;;;;;;;;;;482749;28;1715;-70
2023/10/09 01:18:07;;;;;;;9.47;5.47;;;;;;;;;;482515;28;1358;-70
2023/10/09 01:18:31;;;;;;;11.70;5.60;;;;;;;;;;480254;28;1043;-71
2023/10/09 01:18:51;;;;;;;12.90;5.72;;;;;;;;;;481265;28;1023;-70
2023/10/09 01:19:12;;;;;;;14.40;6.85;;;;;;;;;;481766;28;1405;-71
2023/10/09 01:19:28;;;;;;;12.85;7.50;;;;;;;;;;480574;28;1195;-70
2023/10/09 01:19:44;;;;;;;11.60;6.70;;;;;;;;;;482543;28;1192;-70
2023/10/09 01:20:03;;;;;;;10.98;5.68;;;;;;;;;;484129;28;913;-70
2023/10/09 01:20:28;;;;;;;9.10;5.05;;;;;;;;;;485406;28;970;-70
2023/10/09 01:20:45;;;;;;;8.23;4.90;;;;;;;;;;484247;28;1025;-71
2023/10/09 01:21:02;;;;;;;7.90;4.95;;;;;;;;;;485363;28;921;-71
2023/10/09 01:21:23;;;;;;;8.73;5.00;;;;;;;;;;483164;28;1379;-70
2023/10/09 01:21:40;;;;;;;8.38;5.25;;;;;;;;;;482897;28;1087;-70
2023/10/09 01:22:04;;;;;;;8.77;5.82;;;;;;;;;;484039;28;867;-71
2023/10/09 01:22:21;;;;;;;11.27;7.32;;;;;;;;;;482917;28;1106;-70
2023/10/09 01:22:37;;;;;;;12.40;7.63;;;;;;;;;;483094;28;1054;-70
2023/10/09 01:22:52;;;;;;;14.57;8.00;;;;;;;;;;480558;28;1254;-71
2023/10/09 01:23:11;;;;;;;14.82;8.13;;;;;;;;;;480355;28;1205;-71
2023/10/09 01:23:29;;;;;;;14.93;8.77;;;;;;;;;;479908;28;1652;-71
2023/10/09 01:24:04;;;;;;;15.90;9.45;;;;;;;;;;480336;28;1073;-70
2023/10/09 01:24:19;;;;;;;10.10;6.50;;;;;;;;;;480048;28;1263;-71
2023/10/09 01:24:38;;;;;;;10.02;6.07;;;;;;;;;;479974;28;1211;-71
2023/10/09 01:24:55;;;;;;;9.15;5.40;;;;;;;;;;482948;28;1524;-71
2023/10/09 01:25:10;;;;;;;8.38;5.20;;;;;;;;;;481489;28;1267;-71
2023/10/09 01:25:32;;;;;;;8.43;5.10;;;;;;;;;;480700;28;1084;-71
2023/10/09 01:25:54;;;;;;;10.40;4.80;;;;;;;;;;480597;28;877;-71
2023/10/09 01:26:09;;;;;;;9.23;4.90;;;;;;;;;;478986;28;1269;-70
2023/10/09 01:26:25;;;;;;;9.05;5.22;;;;;;;;;;479568;28;1220;-70
2023/10/09 01:26:46;;;;;;;8.60;5.22;;;;;;;;;;480330;28;1309;-70
2023/10/09 01:27:05;;;;;;;8.02;5.10;;;;;;;;;;479399;28;1127;-71
2023/10/09 01:27:25;;;;;;;8.27;5.20;;;;;;;;;;481570;28;1272;-71
2023/10/09 01:27:43;;;;;;;9.48;5.53;;;;;;;;;;480981;28;1564;-71
2023/10/09 01:27:59;;;;;;;9.32;5.53;;;;;;;;;;482164;28;971;-70
2023/10/09 01:28:15;;;;;;;8.65;5.22;;;;;;;;;;480998;28;1155;-70
2023/10/09 01:28:31;;;;;;;7.68;5.03;;;;;;;;;;483495;28;1457;-71
2023/10/09 01:28:49;;;;;;;9.52;5.20;;;;;;;;;;484631;28;1081;-70
2023/10/09 01:29:14;;;;;;;8.77;4.80;;;;;;;;;;483626;28;1063;-71
2023/10/09 01:29:29;;;;;;;8.57;4.70;;;;;;;;;;482744;28;962;-71
2023/10/09 01:29:45;;;;;;;8.40;4.82;;;;;;;;;;481641;28;1034;-71
2023/10/09 01:30:01;;;;;;;7.85;4.90;;;;;;;;;;479815;28;1244;-71
2023/10/09 01:30:16;;;;;;;8.87;5.00;;;;;;;;;;481887;28;1110;-71
2023/10/09 01:30:33;;;;;;;9.55;5.28;;;;;;;;;;482881;28;886;-71
2023/10/09 01:30:48;;;;;;;9.25;5.43;;;;;;;;;;481435;28;907;-71
2023/10/09 01:31:06;;;;;;;10.38;5.22;;;;;;;;;;479354;28;1214;-70
2023/10/09 01:31:21;;;;;;;10.30;5.20;;;;;;;;;;480771;28;1149;-71
2023/10/09 01:31:44;;;;;;;8.23;5.28;;;;;;;;;;477033;28;1180;-70
2023/10/09 01:32:02;;;;;;;9.35;5.38;;;;;;;;;;477872;28;1316;-70
2023/10/09 01:32:19;;;;;;;8.18;5.50;;;;;;;;;;478273;28;1148;-70
2023/10/09 01:32:34;;;;;;;8.45;5.43;;;;;;;;;;478478;28;1309;-71
2023/10/09 01:32:51;;;;;;;8.17;5.23;;;;;;;;;;477778;28;849;-71
2023/10/09 01:33:12;;;;;;;8.13;5.22;;;;;;;;;;480676;28;1114;-71
2023/10/09 01:33:28;;;;;;;7.28;5.05;;;;;;;;;;481598;28;1089;-71
2023/10/09 01:33:44;;;;;;;6.35;4.50;;;;;;;;;;483437;28;1120;-70
2023/10/09 01:34:00;;;;;;;6.70;4.28;;;;;;;;;;486357;28;926;-70
2023/10/09 01:34:15;;;;;;;7.80;4.60;;;;;;;;;;485375;28;1073;-70
2023/10/09 01:34:50;;;;;;;8.80;5.00;;;;;;;;;;484561;28;985;-70
2023/10/09 01:35:19;;;;;;;10.68;5.63;;;;;;;;;;483530;28;1196;-70
2023/10/09 01:35:35;;;;;;;9.77;5.60;;;;;;;;;;481065;28;995;-71
2023/10/09 01:35:59;;;;;;;10.18;5.32;;;;;;;;;;482458;28;2023;-70
2023/10/09 01:36:15;;;;;;;8.25;5.00;;;;;;;;;;483514;28;2256;-71
2023/10/09 01:36:33;;;;;;;8.15;5.10;;;;;;;;;;482946;28;1276;-71
2023/10/09 01:36:49;;;;;;;8.68;5.20;;;;;;;;;;483251;28;1298;-68
2023/10/09 01:37:28;;;;;;;8.93;5.25;;;;;;;;;;482860;28;1705;-70
2023/10/09 01:37:44;;;;;;;9.10;5.20;;;;;;;;;;480036;28;1017;-70
2023/10/09 01:37:59;;;;;;;8.67;5.17;;;;;;;;;;479370;28;1237;-70
2023/10/09 01:38:16;;;;;;;9.43;5.43;;;;;;;;;;479117;28;1240;-70
2023/10/09 01:38:40;;;;;;;9.55;5.50;;;;;;;;;;479133;28;968;-70
2023/10/09 01:38:55;;;;;;;7.97;5.20;;;;;;;;;;479764;28;974;-70
2023/10/09 01:40:00;;;;;;;8.18;5.03;;;;;;;;;;478718;28;1027;-70
2023/10/09 01:40:25;;;;;;;9.73;5.60;;;;;;;;;;479133;28;1216;-70
2023/10/09 01:40:40;;;;;;;10.65;5.70;;;;;;;;;;477320;29;1706;-70
2023/10/09 01:41:03;;;;;;;9.85;5.80;;;;;;;;;;478110;28;1203;-71
2023/10/09 01:41:19;;;;;;;8.60;5.60;;;;;;;;;;480964;28;1573;-70
2023/10/09 01:41:37;;;;;;;9.55;5.47;;;;;;;;;;479800;28;1032;-70
2023/10/09 01:42:01;;;;;;;9.43;5.18;;;;;;;;;;477426;28;1425;-70
2023/10/09 01:42:44;;;;;;;8.05;5.28;;;;;;;;;;480303;28;1494;-70
2023/10/09 01:43:00;;;;;;;8.75;5.35;;;;;;;;;;476860;29;1703;-70
2023/10/09 01:43:18;;;;;;;9.50;5.30;;;;;;;;;;478149;28;1165;-71
2023/10/09 01:43:34;;;;;;;10.27;5.75;;;;;;;;;;481030;28;1252;-70
2023/10/09 01:43:52;;;;;;;9.70;5.55;;;;;;;;;;481596;28;935;-70
2023/10/09 01:44:12;;;;;;;8.68;5.03;;;;;;;;;;483565;28;915;-70
2023/10/09 01:44:34;;;;;;;8.25;5.15;;;;;;;;;;483467;28;1078;-70
2023/10/09 01:44:50;;;;;;;7.28;5.00;;;;;;;;;;482109;28;1045;-71
2023/10/09 01:45:27;;;;;;;6.82;4.88;;;;;;;;;;484682;28;1514;-70
2023/10/09 01:45:42;;;;;;;6.88;4.97;;;;;;;;;;487344;28;1042;-70
2023/10/09 01:46:01;;;;;;;6.27;4.70;;;;;;;;;;488059;28;1204;-70
2023/10/09 01:46:19;;;;;;;5.75;4.38;;;;;;;;;;485713;28;1353;-70
2023/10/09 01:46:34;;;;;;;6.78;4.50;;;;;;;;;;485028;28;1531;-70
2023/10/09 01:46:52;;;;;;;8.45;5.07;;;;;;;;;;483937;28;979;-70
2023/10/09 01:47:08;;;;;;;7.72;5.15;;;;;;;;;;482418;28;1294;-70
2023/10/09 01:47:25;;;;;;;8.57;5.30;;;;;;;;;;483880;28;1227;-70
2023/10/09 01:47:46;;;;;;;9.05;5.30;;;;;;;;;;483575;28;1053;-70
2023/10/09 01:48:04;;;;;;;9.15;5.70;;;;;;;;;;485997;28;947;-71
2023/10/09 01:48:24;;;;;;;8.35;5.70;;;;;;;;;;485265;28;1125;-70
2023/10/09 01:48:39;;;;;;;8.75;5.20;;;;;;;;;;484373;28;887;-71
2023/10/09 01:48:55;;;;;;;8.95;5.40;;;;;;;;;;484413;28;1126;-71
2023/10/09 01:49:17;;;;;;;12.70;5.67;;;;;;;;;;485084;28;1332;-71
2023/10/09 01:49:35;;;;;;;10.13;5.65;;;;;;;;;;483852;28;990;-71
2023/10/09 01:49:53;;;;;;;9.38;5.70;;;;;;;;;;484907;28;1059;-71
2023/10/09 01:50:19;;;;;;;8.98;5.55;;;;;;;;;;484674;28;1171;-71
2023/10/09 01:50:41;;;;;;;7.85;5.65;;;;;;;;;;482049;28;1346;-70
2023/10/09 01:50:58;;;;;;;10.07;5.50;;;;;;;;;;480573;28;1216;-70
2023/10/09 01:51:17;;;;;;;10.07;5.68;;;;;;;;;;481421;28;1386;-70
2023/10/09 01:51:36;;;;;;;8.68;5.60;;;;;;;;;;480998;28;1111;-70
2023/10/09 01:51:51;;;;;;;9.30;5.68;;;;;;;;;;483252;28;1329;-70
2023/10/09 01:52:10;;;;;;;9.07;5.80;;;;;;;;;;483224;28;1073;-70
2023/10/09 01:52:25;;;;;;;9.13;5.50;;;;;;;;;;483947;28;984;-70
2023/10/09 01:52:42;;;;;;;9.27;5.60;;;;;;;;;;482865;28;923;-70
2023/10/09 01:53:01;;;;;;;9.40;5.88;;;;;;;;;;483351;28;1055;-70
2023/10/09 01:53:21;;;;;;;9.23;5.30;;;;;;;;;;481371;28;1067;-70
2023/10/09 01:53:38;;;;;;;7.65;5.00;;;;;;;;;;483603;28;974;-70
2023/10/09 01:53:56;;;;;;;7.28;4.93;;;;;;;;;;483832;28;1089;-70
2023/10/09 01:54:27;;;;;;;8.07;5.00;;;;;;;;;;483468;28;1038;-70
2023/10/09 01:54:50;;;;;;;7.93;5.28;;;;;;;;;;482556;28;1111;-70
2023/10/09 01:55:09;;;;;;;6.75;4.80;;;;;;;;;;483550;28;930;-70
2023/10/09 01:55:49;;;;;;;8.13;5.82;;;;;;;;;;485088;28;850;-70
2023/10/09 01:56:14;;;;;;;11.40;6.15;;;;;;;;;;483702;28;1248;-70
2023/10/09 01:56:30;;;;;;;9.18;5.75;;;;;;;;;;482877;28;1414;-70
2023/10/09 01:56:53;;;;;;;9.93;5.90;;;;;;;;;;483617;28;1083;-70
2023/10/09 01:57:15;;;;;;;11.20;6.13;;;;;;;;;;483246;28;1006;-71
2023/10/09 01:57:30;;;;;;;9.05;5.90;;;;;;;;;;484986;28;949;-70
2023/10/09 01:57:46;;;;;;;9.95;5.80;;;;;;;;;;482113;28;1324;-70
2023/10/09 01:58:24;;;;;;;9.40;5.67;;;;;;;;;;481662;28;1073;-70
2023/10/09 01:58:40;;;;;;;8.00;5.03;;;;;;;;;;481393;28;892;-70
2023/10/09 01:58:57;;;;;;;8.75;5.30;;;;;;;;;;481979;28;990;-70
2023/10/09 01:59:13;;;;;;;8.82;5.50;;;;;;;;;;480679;28;1270;-70
2023/10/09 01:59:28;;;;;;;8.77;5.70;;;;;;;;;;481659;28;1221;-70
2023/10/09 01:59:45;;;;;;;9.10;5.80;;;;;;;;;;480875;28;1035;-70
2023/10/09 02:00:02;;;;;;;9.27;6.05;;;;;;;;;;481814;28;1077;-70
2023/10/09 02:00:23;;;;;;;9.68;6.20;;;;;;;;;;480235;28;958;-70
2023/10/09 02:00:43;;;;;;;12.05;6.43;;;;;;;;;;481841;28;1207;-70
2023/10/09 02:01:02;;;;;;;11.77;6.38;;;;;;;;;;482015;28;993;-70
2023/10/09 02:01:17;;;;;;;9.98;6.47;;;;;;;;;;482865;28;1048;-70
2023/10/09 02:01:33;;;;;;;9.77;6.33;;;;;;;;;;483705;28;965;-70
2023/10/09 02:01:48;;;;;;;9.05;6.18;;;;;;;;;;481220;28;1212;-70
2023/10/09 02:02:25;;;;;;;8.43;5.90;;;;;;;;;;480480;28;1370;-70
2023/10/09 02:02:44;;;;;;;10.20;6.20;;;;;;;;;;479307;28;1040;-70
2023/10/09 02:03:04;;;;;;;9.23;5.95;;;;;;;;;;477682;28;1299;-70
2023/10/09 02:03:24;;;;;;;9.20;6.30;;;;;;;;;;478999;28;1205;-70
2023/10/09 02:03:42;;;;;;;8.68;6.18;;;;;;;;;;478356;28;1059;-70
2023/10/09 02:04:05;;;;;;;10.20;6.32;;;;;;;;;;478426;28;1301;-70
2023/10/09 02:04:20;;;;;;;11.40;6.20;;;;;;;;;;479984;28;1298;-70
2023/10/09 02:04:36;;;;;;;10.33;6.00;;;;;;;;;;480121;28;1144;-70
2023/10/09 02:04:53;;;;;;;10.30;6.10;;;;;;;;;;480326;28;1286;-70
2023/10/09 02:05:33;;;;;;;10.45;6.10;;;;;;;;;;482030;28;883;-70
2023/10/09 02:05:50;;;;;;;9.45;6.10;;;;;;;;;;481594;28;1016;-70
2023/10/09 02:06:24;;;;;;;8.50;5.82;;;;;;;;;;479300;28;1265;-70
2023/10/09 02:06:40;;;;;;;8.93;6.03;;;;;;;;;;479804;28;2238;-70
2023/10/09 02:06:55;;;;;;;9.38;5.95;;;;;;;;;;480099;28;887;-70
2023/10/09 02:07:12;;;;;;;9.23;5.87;;;;;;;;;;480140;28;1186;-70
2023/10/09 02:07:29;;;;;;;10.63;6.05;;;;;;;;;;477747;28;1347;-70
2023/10/09 02:07:44;;;;;;;10.50;6.30;;;;;;;;;;477489;28;1335;-71
2023/10/09 02:08:03;;;;;;;11.27;6.30;;;;;;;;;;477876;28;1285;-70
2023/10/09 02:08:26;;;;;;;11.93;6.30;;;;;;;;;;477868;28;911;-70
2023/10/09 02:08:49;;;;;;;9.00;6.40;;;;;;;;;;479998;28;1059;-70
2023/10/09 02:09:06;;;;;;;9.75;6.47;;;;;;;;;;481104;28;1121;-70
2023/10/09 02:09:22;;;;;;;8.35;5.70;;;;;;;;;;481447;28;1509;-70
2023/10/09 02:09:46;;;;;;;10.65;5.88;;;;;;;;;;481431;28;1621;-69
2023/10/09 02:10:01;;;;;;;9.13;5.60;;;;;;;;;;480009;28;1639;-70
2023/10/09 02:10:25;;;;;;;8.63;5.70;;;;;;;;;;478587;28;1432;-70
2023/10/09 02:10:47;;;;;;;8.13;5.90;;;;;;;;;;478972;28;1233;-70
2023/10/09 02:11:03;;;;;;;7.70;5.55;;;;;;;;;;479909;28;1287;-70
2023/10/09 02:11:35;;;;;;;8.93;5.78;;;;;;;;;;479841;28;1045;-70